Time;durP1;ratioP1;P1;durP2;ratioP2;P2;SDS_P1;SDS_P2;PMS_P1;PMS_P2;Temp;Humidity;BMP_temperature;BMP_pressure;BME280_temperature;BME280_humidity;BME280_pressure;Samples;Min_cycle;Max_cycle;Signal;HPM_P1;HPM_P2
2023/10/29 00:00:46;;;;;;;;;;;15.70;93.70;;;;;;4150628;28;20014;-53
2023/10/29 00:03:26;;;;;;;;;;;15.70;93.70;;;;;;4154966;28;19936;-50
2023/10/29 00:06:10;;;;;;;;;;;15.70;93.80;;;;;;4153951;28;19970;-53
2023/10/29 00:08:51;;;;;;;;;;;15.70;93.80;;;;;;4154656;28;19932;-54
2023/10/29 00:11:33;;;;;;;;;;;15.70;93.80;;;;;;4154392;28;19978;-51
2023/10/29 00:14:13;;;;;;;;;;;15.70;93.80;;;;;;4147804;28;19936;-53
2023/10/29 00:16:55;;;;;;;;;;;15.70;93.80;;;;;;4154007;28;19932;-54
2023/10/29 00:19:36;;;;;;;;;;;15.60;93.80;;;;;;4154700;28;20293;-53
2023/10/29 00:22:17;;;;;;;;;;;15.60;93.80;;;;;;4137827;28;19932;-53
2023/10/29 00:24:57;;;;;;;;;;;15.60;93.80;;;;;;4137643;28;20277;-49
2023/10/29 00:27:38;;;;;;;;;;;15.60;93.90;;;;;;4137686;28;20420;-52
2023/10/29 00:30:19;;;;;;;;;;;15.60;93.90;;;;;;4152948;28;19970;-52
2023/10/29 00:33:02;;;;;;;;;;;15.60;93.90;;;;;;4147639;28;19936;-50
2023/10/29 00:35:42;;;;;;;;;;;15.60;93.90;;;;;;4143116;28;20452;-52
2023/10/29 00:38:24;;;;;;;;;;;15.60;94.00;;;;;;4152563;28;20004;-53
2023/10/29 00:41:05;;;;;;;;;;;15.60;94.00;;;;;;4154186;28;20082;-51
2023/10/29 00:43:46;;;;;;;;;;;15.60;94.00;;;;;;4153256;28;20031;-53
2023/10/29 00:46:27;;;;;;;;;;;15.60;94.10;;;;;;4153440;28;19932;-55
2023/10/29 00:49:09;;;;;;;;;;;15.60;94.00;;;;;;4138832;28;20015;-55
2023/10/29 00:51:50;;;;;;;;;;;15.60;94.40;;;;;;4138129;28;19933;-55
2023/10/29 00:54:31;;;;;;;;;;;15.60;94.10;;;;;;4154297;28;19983;-53
2023/10/29 00:57:12;;;;;;;;;;;15.60;94.10;;;;;;4143376;28;20413;-50
2023/10/29 00:59:53;;;;;;;;;;;15.60;94.60;;;;;;4136066;28;19933;-55
2023/10/29 01:02:34;;;;;;;;;;;15.60;94.20;;;;;;4137406;28;19936;-54
2023/10/29 01:05:16;;;;;;;;;;;15.60;94.20;;;;;;4146848;28;20767;-57
2023/10/29 01:07:58;;;;;;;;;;;15.60;94.20;;;;;;4154263;28;19964;-56
2023/10/29 01:10:41;;;;;;;;;;;15.60;94.20;;;;;;4154078;28;19948;-56
2023/10/29 01:13:22;;;;;;;;;;;15.60;94.20;;;;;;4137344;28;19936;-57
2023/10/29 01:16:04;;;;;;;;;;;15.60;94.20;;;;;;4136784;28;19953;-56
2023/10/29 01:18:46;;;;;;;;;;;15.60;94.20;;;;;;4139031;28;19936;-56
2023/10/29 01:21:28;;;;;;;;;;;15.50;94.20;;;;;;4144576;28;19943;-52
2023/10/29 01:24:09;;;;;;;;;;;15.60;94.60;;;;;;4154101;28;19982;-57
2023/10/29 01:26:50;;;;;;;;;;;15.50;94.20;;;;;;4164264;28;19932;-57
2023/10/29 01:29:31;;;;;;;;;;;15.60;94.30;;;;;;4154101;28;20083;-56
2023/10/29 01:32:12;;;;;;;;;;;15.50;94.20;;;;;;4153331;28;20719;-55
2023/10/29 01:34:53;;;;;;;;;;;15.50;94.30;;;;;;4156360;28;19948;-55
2023/10/29 01:37:35;;;;;;;;;;;15.50;94.30;;;;;;4140789;28;19967;-54
2023/10/29 01:40:16;;;;;;;;;;;15.50;94.70;;;;;;4141385;28;20113;-53
2023/10/29 01:42:57;;;;;;;;;;;15.50;94.40;;;;;;4156135;28;19936;-56
2023/10/29 01:45:38;;;;;;;;;;;15.50;94.40;;;;;;4152623;28;20052;-53
2023/10/29 01:48:19;;;;;;;;;;;15.60;94.50;;;;;;4156709;28;19998;-54
2023/10/29 01:51:04;;;;;;;;;;;15.50;94.40;;;;;;4166439;28;20000;-53
2023/10/29 01:53:46;;;;;;;;;;;15.60;94.50;;;;;;4155875;28;19935;-52
2023/10/29 01:56:27;;;;;;;;;;;15.50;94.50;;;;;;4139919;28;20318;-53
2023/10/29 01:59:08;;;;;;;;;;;15.60;94.50;;;;;;4124978;28;19933;-54
2023/10/29 02:01:48;;;;;;;;;;;15.60;94.50;;;;;;4138136;28;20329;-54
2023/10/29 02:04:30;;;;;;;;;;;15.60;94.50;;;;;;4150588;28;19946;-55
2023/10/29 02:07:11;;;;;;;;;;;15.60;94.50;;;;;;4156394;28;19936;-56
2023/10/29 02:09:53;;;;;;;;;;;15.50;94.50;;;;;;4155036;28;19933;-56
2023/10/29 02:12:34;;;;;;;;;;;15.60;94.50;;;;;;4153845;28;19982;-54
2023/10/29 02:15:15;;;;;;;;;;;15.50;94.50;;;;;;4154754;28;19940;-52
2023/10/29 02:17:56;;;;;;;;;;;15.50;94.50;;;;;;4154818;28;20298;-53
2023/10/29 02:20:37;;;;;;;;;;;15.60;94.60;;;;;;4151900;28;20452;-53
2023/10/29 02:23:20;;;;;;;;;;;15.60;94.60;;;;;;4154080;28;20293;-54
2023/10/29 02:26:01;;;;;;;;;;;15.50;94.60;;;;;;4154320;28;20006;-53
2023/10/29 02:28:42;;;;;;;;;;;15.50;94.60;;;;;;4165697;28;19967;-50
2023/10/29 02:31:23;;;;;;;;;;;15.50;94.60;;;;;;4150401;28;19952;-52
2023/10/29 02:34:05;;;;;;;;;;;15.50;94.70;;;;;;4154548;28;20014;-53
2023/10/29 02:36:45;;;;;;;;;;;15.50;94.70;;;;;;4151755;28;19936;-52
2023/10/29 02:39:27;;;;;;;;;;;15.60;94.80;;;;;;4155689;28;19936;-53
2023/10/29 02:42:09;;;;;;;;;;;15.60;94.80;;;;;;4154514;28;19932;-53
2023/10/29 02:44:50;;;;;;;;;;;15.50;95.20;;;;;;4164766;28;19932;-53
2023/10/29 02:47:31;;;;;;;;;;;15.60;94.80;;;;;;4153910;28;19936;-55
2023/10/29 02:50:12;;;;;;;;;;;15.60;94.80;;;;;;4154824;28;19936;-51
2023/10/29 02:52:53;;;;;;;;;;;15.60;94.90;;;;;;4149874;28;20010;-52
2023/10/29 02:55:35;;;;;;;;;;;15.50;94.90;;;;;;4135156;28;19933;-51
2023/10/29 02:58:16;;;;;;;;;;;15.60;94.90;;;;;;4137844;28;19932;-52
2023/10/29 03:01:03;;;;;;;;;;;15.60;94.90;;;;;;4140300;28;20010;-55
2023/10/29 03:03:44;;;;;;;;;;;15.60;94.90;;;;;;4149286;28;19932;-53
2023/10/29 03:06:25;;;;;;;;;;;15.60;94.90;;;;;;4138765;28;19968;-54
2023/10/29 03:09:06;;;;;;;;;;;15.60;95.00;;;;;;4137477;28;19936;-55
2023/10/29 03:11:49;;;;;;;;;;;15.60;95.00;;;;;;4138254;28;19941;-56
2023/10/29 03:14:30;;;;;;;;;;;15.60;95.00;;;;;;4144584;28;19990;-55
2023/10/29 03:17:10;;;;;;;;;;;15.50;95.00;;;;;;4154976;28;20399;-56
2023/10/29 03:19:51;;;;;;;;;;;15.60;95.00;;;;;;4138860;28;20080;-56
2023/10/29 03:22:32;;;;;;;;;;;15.60;95.00;;;;;;4137280;28;20033;-54
2023/10/29 03:25:14;;;;;;;;;;;15.50;95.00;;;;;;4138348;28;19945;-55
2023/10/29 03:27:57;;;;;;;;;;;15.60;95.00;;;;;;4138091;28;20657;-56
2023/10/29 03:30:38;;;;;;;;;;;15.60;95.00;;;;;;4148637;28;19932;-53
2023/10/29 03:33:19;;;;;;;;;;;15.60;95.00;;;;;;4150554;28;20001;-54
2023/10/29 03:36:04;;;;;;;;;;;15.60;95.10;;;;;;4137497;28;19983;-55
2023/10/29 03:38:45;;;;;;;;;;;15.60;95.10;;;;;;4153471;28;20282;-55
2023/10/29 03:41:25;;;;;;;;;;;15.60;95.10;;;;;;4154222;28;20079;-55
2023/10/29 03:44:09;;;;;;;;;;;15.60;95.10;;;;;;4164644;28;19990;-55
2023/10/29 03:46:53;;;;;;;;;;;15.60;95.50;;;;;;4155260;28;19932;-55
2023/10/29 03:49:34;;;;;;;;;;;15.60;95.10;;;;;;4154616;28;19932;-52
2023/10/29 03:52:14;;;;;;;;;;;15.60;95.50;;;;;;4138415;28;19932;-50
2023/10/29 03:54:55;;;;;;;;;;;15.60;95.10;;;;;;4138463;28;19937;-49
2023/10/29 03:57:36;;;;;;;;;;;15.60;95.10;;;;;;4137244;28;19932;-51
2023/10/29 04:00:18;;;;;;;;;;;15.60;95.20;;;;;;4141756;28;19986;-54
2023/10/29 04:02:59;;;;;;;;;;;15.60;95.10;;;;;;4154063;28;20298;-53
2023/10/29 04:05:40;;;;;;;;;;;15.60;95.20;;;;;;4151509;28;19979;-54
2023/10/29 04:08:21;;;;;;;;;;;15.60;95.20;;;;;;4152687;28;20462;-52
2023/10/29 04:11:02;;;;;;;;;;;15.60;95.20;;;;;;4131404;28;20297;-54
2023/10/29 04:13:42;;;;;;;;;;;15.60;95.20;;;;;;4136874;28;19935;-55
2023/10/29 04:16:24;;;;;;;;;;;15.60;95.20;;;;;;4138179;28;19940;-54
2023/10/29 04:19:05;;;;;;;;;;;15.60;95.20;;;;;;4149289;28;19936;-53
2023/10/29 04:21:46;;;;;;;;;;;15.60;95.20;;;;;;4147305;28;19936;-56
2023/10/29 04:24:28;;;;;;;;;;;15.60;95.20;;;;;;4163900;28;19982;-53
2023/10/29 04:27:09;;;;;;;;;;;15.60;95.20;;;;;;4154253;28;19932;-52
2023/10/29 04:29:50;;;;;;;;;;;15.60;95.20;;;;;;4153784;28;19936;-55
2023/10/29 04:32:32;;;;;;;;;;;15.60;95.20;;;;;;4153957;28;19979;-55
2023/10/29 04:35:13;;;;;;;;;;;15.60;95.20;;;;;;4153375;28;20262;-52
2023/10/29 04:37:54;;;;;;;;;;;15.60;95.20;;;;;;4153455;28;20060;-53
2023/10/29 04:40:35;;;;;;;;;;;15.60;95.20;;;;;;4154024;28;19932;-54
2023/10/29 04:43:16;;;;;;;;;;;15.60;95.20;;;;;;4154352;28;19998;-54
2023/10/29 04:45:57;;;;;;;;;;;15.60;95.30;;;;;;4138950;28;19935;-54
2023/10/29 04:48:39;;;;;;;;;;;15.60;95.30;;;;;;4137015;28;20381;-55
2023/10/29 04:51:21;;;;;;;;;;;15.60;95.30;;;;;;4164609;28;20340;-52
2023/10/29 04:54:02;;;;;;;;;;;15.60;95.30;;;;;;4151129;28;19932;-52
2023/10/29 04:56:42;;;;;;;;;;;15.60;95.30;;;;;;4152571;28;19948;-51
2023/10/29 04:59:23;;;;;;;;;;;15.60;95.30;;;;;;4146404;28;19935;-55
2023/10/29 05:02:04;;;;;;;;;;;15.60;95.30;;;;;;4141537;28;19974;-54
2023/10/29 05:04:48;;;;;;;;;;;15.60;95.30;;;;;;4138375;28;20029;-52
2023/10/29 05:07:28;;;;;;;;;;;15.60;95.40;;;;;;4137372;28;20460;-54
2023/10/29 05:10:09;;;;;;;;;;;15.60;95.40;;;;;;4157265;28;19979;-53
2023/10/29 05:12:50;;;;;;;;;;;15.60;95.30;;;;;;4157572;28;20067;-53
2023/10/29 05:15:31;;;;;;;;;;;15.60;95.30;;;;;;4157123;28;19963;-55
2023/10/29 05:18:12;;;;;;;;;;;15.60;95.70;;;;;;4140519;28;19933;-55
2023/10/29 05:20:54;;;;;;;;;;;15.60;95.30;;;;;;4140020;28;20067;-54
2023/10/29 05:23:35;;;;;;;;;;;15.60;95.20;;;;;;4141119;28;19937;-53
2023/10/29 05:26:15;;;;;;;;;;;15.60;95.20;;;;;;4126707;28;19980;-56
2023/10/29 05:28:56;;;;;;;;;;;15.60;95.20;;;;;;4146852;28;20309;-54
2023/10/29 05:31:37;;;;;;;;;;;15.60;95.30;;;;;;4157169;28;19936;-53
2023/10/29 05:34:17;;;;;;;;;;;15.60;95.20;;;;;;4157083;28;19932;-53
2023/10/29 05:37:00;;;;;;;;;;;15.60;95.60;;;;;;4155929;28;19935;-53
2023/10/29 05:39:40;;;;;;;;;;;15.60;95.20;;;;;;4156651;28;19933;-55
2023/10/29 05:42:21;;;;;;;;;;;15.60;95.20;;;;;;4155501;28;20400;-56
2023/10/29 05:45:02;;;;;;;;;;;15.60;95.10;;;;;;4156332;28;19932;-52
2023/10/29 05:47:44;;;;;;;;;;;15.60;95.10;;;;;;4156110;28;19936;-57
2023/10/29 05:50:24;;;;;;;;;;;15.60;95.10;;;;;;4154599;28;19932;-54
2023/10/29 05:53:07;;;;;;;;;;;15.60;95.10;;;;;;4155353;28;19982;-51
2023/10/29 05:55:48;;;;;;;;;;;15.50;95.00;;;;;;4167163;28;20056;-52
2023/10/29 05:58:28;;;;;;;;;;;15.60;95.00;;;;;;4155259;28;20282;-59
2023/10/29 06:01:10;;;;;;;;;;;15.60;95.40;;;;;;4154701;28;19958;-55
2023/10/29 06:03:51;;;;;;;;;;;15.50;95.00;;;;;;4155863;28;20432;-56
2023/10/29 06:06:32;;;;;;;;;;;15.50;95.00;;;;;;4138526;28;20703;-54
2023/10/29 06:09:14;;;;;;;;;;;15.50;95.40;;;;;;4140215;28;20294;-55
2023/10/29 06:12:03;;;;;;;;;;;15.50;95.00;;;;;;4155325;28;19932;-58
2023/10/29 06:14:45;;;;;;;;;;;15.50;95.00;;;;;;4148122;28;19943;-52
2023/10/29 06:17:26;;;;;;;;;;;15.50;95.10;;;;;;4155850;28;20396;-54
2023/10/29 06:20:08;;;;;;;;;;;15.60;95.20;;;;;;4156034;28;19963;-56
2023/10/29 06:22:49;;;;;;;;;;;15.60;95.10;;;;;;4137955;28;20349;-56
2023/10/29 06:25:31;;;;;;;;;;;15.60;95.10;;;;;;4154591;28;19984;-53
2023/10/29 06:28:12;;;;;;;;;;;15.60;95.10;;;;;;4141088;28;19975;-56
2023/10/29 06:30:53;;;;;;;;;;;15.60;95.10;;;;;;4153124;28;19932;-54
2023/10/29 06:33:36;;;;;;;;;;;15.60;95.10;;;;;;4155760;28;20473;-56
2023/10/29 06:36:17;;;;;;;;;;;15.60;95.10;;;;;;4153688;28;20281;-53
2023/10/29 06:38:58;;;;;;;;;;;15.60;95.10;;;;;;4155043;28;20007;-52
2023/10/29 06:41:40;;;;;;;;;;;15.60;95.10;;;;;;4155453;28;20457;-51
2023/10/29 06:44:21;;;;;;;;;;;15.60;95.20;;;;;;4165520;28;19935;-52
2023/10/29 06:47:02;;;;;;;;;;;15.60;95.10;;;;;;4155130;28;20290;-48
2023/10/29 06:49:43;;;;;;;;;;;15.50;95.10;;;;;;4145042;28;19932;-47
2023/10/29 06:52:23;;;;;;;;;;;15.60;95.30;;;;;;4154422;28;19935;-47
2023/10/29 06:55:05;;;;;;;;;;;15.60;95.40;;;;;;4138801;28;20413;-45
2023/10/29 06:57:47;;;;;;;;;;;15.50;95.90;;;;;;4139080;28;20396;-46
2023/10/29 07:00:29;;;;;;;;;;;15.60;96.30;;;;;;4138090;28;20804;-54
2023/10/29 07:03:09;;;;;;;;;;;15.60;96.30;;;;;;4155461;28;20071;-51
2023/10/29 07:05:50;;;;;;;;;;;15.60;96.00;;;;;;4155779;28;19936;-49
2023/10/29 07:08:30;;;;;;;;;;;15.60;95.80;;;;;;4139628;28;20515;-51
2023/10/29 07:11:11;;;;;;;;;;;15.60;95.70;;;;;;4155217;28;20381;-53
2023/10/29 07:13:54;;;;;;;;;;;15.60;95.60;;;;;;4139268;28;19936;-53
2023/10/29 07:16:35;;;;;;;;;;;15.60;95.40;;;;;;4138857;28;19948;-51
2023/10/29 07:19:16;;;;;;;;;;;15.70;95.20;;;;;;4135627;28;19936;-53
2023/10/29 07:21:58;;;;;;;;;;;15.70;94.90;;;;;;4140981;28;19932;-53
2023/10/29 07:24:38;;;;;;;;;;;15.80;94.70;;;;;;4154184;28;20405;-53
2023/10/29 07:27:19;;;;;;;;;;;15.80;94.60;;;;;;4154397;28;19974;-54
2023/10/29 07:30:02;;;;;;;;;;;15.80;94.40;;;;;;4154031;28;20377;-51
2023/10/29 07:32:43;;;;;;;;;;;15.80;94.30;;;;;;4154494;28;19936;-52
2023/10/29 07:35:25;;;;;;;;;;;15.90;94.70;;;;;;4153251;28;19936;-52
2023/10/29 07:38:05;;;;;;;;;;;15.90;94.30;;;;;;4139088;28;19932;-54
2023/10/29 07:40:46;;;;;;;;;;;15.90;94.30;;;;;;4159725;28;19947;-53
2023/10/29 07:43:27;;;;;;;;;;;15.90;94.30;;;;;;4153040;28;20421;-49
2023/10/29 07:46:09;;;;;;;;;;;15.90;94.30;;;;;;4152139;28;19990;-49
2023/10/29 07:48:51;;;;;;;;;;;15.90;94.10;;;;;;4154681;28;19982;-50
2023/10/29 07:51:31;;;;;;;;;;;15.90;93.90;;;;;;4137216;28;20075;-50
2023/10/29 07:54:12;;;;;;;;;;;15.90;93.80;;;;;;4122831;28;19945;-49
2023/10/29 07:56:53;;;;;;;;;;;16.00;93.60;;;;;;4145428;28;19936;-49
2023/10/29 07:59:34;;;;;;;;;;;16.00;93.50;;;;;;4152649;28;19932;-50
2023/10/29 08:02:16;;;;;;;;;;;16.00;93.30;;;;;;4152387;28;19986;-51
2023/10/29 08:04:57;;;;;;;;;;;16.00;93.20;;;;;;4153268;28;20010;-52
2023/10/29 08:07:39;;;;;;;;;;;16.00;93.10;;;;;;4154057;28;20083;-50
2023/10/29 08:10:20;;;;;;;;;;;16.00;92.90;;;;;;4153498;28;19932;-50
2023/10/29 08:13:03;;;;;;;;;;;16.00;92.90;;;;;;4137897;28;19999;-54
2023/10/29 08:15:44;;;;;;;;;;;16.00;92.80;;;;;;4152314;28;19958;-53
2023/10/29 08:18:27;;;;;;;;;;;16.00;92.70;;;;;;4134549;28;19986;-55
2023/10/29 08:21:08;;;;;;;;;;;16.00;92.70;;;;;;4134000;28;19936;-52
2023/10/29 08:23:49;;;;;;;;;;;16.00;92.70;;;;;;4129572;28;19971;-49
2023/10/29 08:26:31;;;;;;;;;;;16.00;93.20;;;;;;4151334;28;20666;-52
2023/10/29 08:29:12;;;;;;;;;;;16.10;92.80;;;;;;4146888;28;19986;-52
2023/10/29 08:31:53;;;;;;;;;;;16.30;92.60;;;;;;4149120;28;20495;-53
2023/10/29 08:34:36;;;;;;;;;;;16.60;92.20;;;;;;4145420;28;20103;-51
2023/10/29 08:37:17;;;;;;;;;;;16.90;91.70;;;;;;4150251;28;19936;-54
2023/10/29 08:39:59;;;;;;;;;;;17.10;91.00;;;;;;4143780;28;19940;-49
2023/10/29 08:42:39;;;;;;;;;;;17.50;90.70;;;;;;4150671;28;19936;-52
2023/10/29 08:45:22;;;;;;;;;;;17.70;90.10;;;;;;4146965;28;19932;-54
2023/10/29 08:48:20;;;;;;;;;;;17.90;88.60;;;;;;4133823;28;19974;-54
2023/10/29 08:51:02;;;;;;;;;;;18.10;88.30;;;;;;4134736;28;19936;-50
2023/10/29 08:53:43;;;;;;;;;;;18.30;88.00;;;;;;4133181;28;19932;-50
2023/10/29 08:56:24;;;;;;;;;;;18.40;87.20;;;;;;4146674;28;20098;-51
2023/10/29 08:59:06;;;;;;;;;;;18.50;87.00;;;;;;4133287;28;19936;-52
2023/10/29 09:01:49;;;;;;;;;;;18.50;86.00;;;;;;4126052;28;19932;-53
2023/10/29 09:04:32;;;;;;;;;;;18.50;86.10;;;;;;4144486;28;19975;-50
2023/10/29 09:07:14;;;;;;;;;;;18.50;85.70;;;;;;4145816;28;19933;-54
2023/10/29 09:09:55;;;;;;;;;;;18.50;85.90;;;;;;4135616;28;19975;-53
2023/10/29 09:12:36;;;;;;;;;;;18.50;85.30;;;;;;4149655;28;19932;-52
2023/10/29 09:15:18;;;;;;;;;;;18.60;85.40;;;;;;4145545;28;20301;-50
2023/10/29 09:17:59;;;;;;;;;;;18.60;84.80;;;;;;4149457;28;19971;-55
2023/10/29 09:20:40;;;;;;;;;;;18.60;85.40;;;;;;4136134;28;20060;-52
2023/10/29 09:23:23;;;;;;;;;;;18.70;84.90;;;;;;4147888;28;19936;-55
2023/10/29 09:26:03;;;;;;;;;;;18.70;84.70;;;;;;4149080;28;19936;-51
2023/10/29 09:28:45;;;;;;;;;;;18.70;85.30;;;;;;4149063;28;19936;-49
2023/10/29 09:31:26;;;;;;;;;;;18.70;84.70;;;;;;4147319;28;20408;-50
2023/10/29 09:34:07;;;;;;;;;;;18.80;85.00;;;;;;4142708;28;19987;-53
2023/10/29 09:36:47;;;;;;;;;;;18.80;84.30;;;;;;4152019;28;19990;-53
2023/10/29 09:39:30;;;;;;;;;;;18.80;84.40;;;;;;4132955;28;19937;-52
2023/10/29 09:42:12;;;;;;;;;;;18.80;84.00;;;;;;4130840;28;19932;-51
2023/10/29 09:44:55;;;;;;;;;;;18.80;84.20;;;;;;4118558;28;19933;-55
2023/10/29 09:47:36;;;;;;;;;;;18.70;84.20;;;;;;4144059;28;19937;-55
2023/10/29 09:50:17;;;;;;;;;;;18.70;84.10;;;;;;4146138;28;19936;-54
2023/10/29 09:53:01;;;;;;;;;;;18.60;83.90;;;;;;4145911;28;19932;-52
2023/10/29 09:55:43;;;;;;;;;;;18.70;83.60;;;;;;4142656;28;20434;-54
2023/10/29 09:58:26;;;;;;;;;;;18.70;85.10;;;;;;4163088;28;20079;-55
2023/10/29 10:01:08;;;;;;;;;;;18.70;84.20;;;;;;4148006;28;19963;-54
2023/10/29 10:03:49;;;;;;;;;;;18.80;83.70;;;;;;4150210;28;19936;-53
2023/10/29 10:06:31;;;;;;;;;;;18.80;84.60;;;;;;4137170;28;20087;-51
2023/10/29 10:09:13;;;;;;;;;;;18.80;83.70;;;;;;4132672;28;19936;-55
2023/10/29 10:12:05;;;;;;;;;;;18.80;84.20;;;;;;4137448;28;19932;-50
2023/10/29 10:14:46;;;;;;;;;;;18.70;83.80;;;;;;4126933;28;20214;-54
2023/10/29 10:17:29;;;;;;;;;;;18.70;84.00;;;;;;4141679;28;19933;-50
2023/10/29 10:20:11;;;;;;;;;;;18.60;84.80;;;;;;4153143;28;20631;-50
2023/10/29 10:22:56;;;;;;;;;;;18.70;85.00;;;;;;4152779;28;19936;-51
2023/10/29 10:25:37;;;;;;;;;;;18.60;85.10;;;;;;4153845;28;19948;-52
2023/10/29 10:28:19;;;;;;;;;;;18.60;84.70;;;;;;4152653;28;20382;-54
2023/10/29 10:31:14;;;;;;;;;;;18.60;84.90;;;;;;4136260;28;19932;-55
2023/10/29 10:34:09;;;;;;;;;;;18.50;84.40;;;;;;4135128;28;20401;-51
2023/10/29 10:36:50;;;;;;;;;;;18.50;84.90;;;;;;4149405;28;20608;-52
2023/10/29 10:39:32;;;;;;;;;;;18.50;83.70;;;;;;4153437;28;20373;-54
2023/10/29 10:42:12;;;;;;;;;;;18.40;84.60;;;;;;4154182;28;19992;-52
2023/10/29 10:44:55;;;;;;;;;;;18.40;84.90;;;;;;4151592;28;19936;-53
2023/10/29 10:47:36;;;;;;;;;;;18.30;84.70;;;;;;4153583;28;19932;-53
2023/10/29 10:50:17;;;;;;;;;;;18.30;84.80;;;;;;4153764;28;19936;-54
2023/10/29 10:52:58;;;;;;;;;;;18.30;85.40;;;;;;4153451;28;19935;-54
2023/10/29 10:55:39;;;;;;;;;;;18.30;85.30;;;;;;4149763;28;19932;-51
2023/10/29 10:58:40;;;;;;;;;;;18.30;85.40;;;;;;4153004;28;19967;-52
2023/10/29 11:01:22;;;;;;;;;;;18.30;85.40;;;;;;4153109;28;19932;-53
2023/10/29 11:04:03;;;;;;;;;;;18.30;85.00;;;;;;4153670;28;19952;-51
2023/10/29 11:06:45;;;;;;;;;;;18.30;85.60;;;;;;4152210;28;19936;-52
2023/10/29 11:09:26;;;;;;;;;;;18.30;85.50;;;;;;4152647;28;19978;-51
2023/10/29 11:12:10;;;;;;;;;;;18.30;85.40;;;;;;4139164;28;19937;-54
2023/10/29 11:15:12;;;;;;;;;;;18.30;85.90;;;;;;4148479;28;19935;-50
2023/10/29 11:18:03;;;;;;;;;;;18.30;85.90;;;;;;4152817;28;19967;-50
2023/10/29 11:21:03;;;;;;;;;;;18.40;86.10;;;;;;4151504;28;19986;-50
2023/10/29 11:23:44;;;;;;;;;;;18.40;86.10;;;;;;4150775;28;19955;-54
2023/10/29 11:26:26;;;;;;;;;;;18.40;86.00;;;;;;4153453;28;19933;-53
2023/10/29 11:29:07;;;;;;;;;;;18.40;86.30;;;;;;4145175;28;19932;-53
2023/10/29 11:31:47;;;;;;;;;;;18.30;85.30;;;;;;4149322;28;19936;-54
2023/10/29 11:34:36;;;;;;;;;;;18.30;85.50;;;;;;4140624;28;19966;-51
2023/10/29 11:37:35;;;;;;;;;;;18.30;86.50;;;;;;4152678;28;19975;-55
2023/10/29 11:40:29;;;;;;;;;;;18.30;86.10;;;;;;4112479;28;20080;-53
2023/10/29 11:43:17;;;;;;;;;;;18.20;86.70;;;;;;4133103;28;20397;-52
2023/10/29 11:45:59;;;;;;;;;;;18.20;87.40;;;;;;4143506;28;19932;-50
2023/10/29 11:49:02;;;;;;;;;;;18.20;87.60;;;;;;4137766;28;19995;-52
2023/10/29 11:51:52;;;;;;;;;;;18.20;87.60;;;;;;4136967;28;19972;-54
2023/10/29 11:54:33;;;;;;;;;;;18.20;87.30;;;;;;4137469;28;19932;-54
2023/10/29 11:57:14;;;;;;;;;;;18.20;87.00;;;;;;4149525;28;19936;-53
2023/10/29 11:59:55;;;;;;;;;;;18.20;87.30;;;;;;4141215;28;19936;-54
2023/10/29 12:02:37;;;;;;;;;;;18.10;87.30;;;;;;4152344;28;20336;-55
2023/10/29 12:05:17;;;;;;;;;;;18.10;87.60;;;;;;4154346;28;19932;-52
2023/10/29 12:08:00;;;;;;;;;;;18.10;87.80;;;;;;4152679;28;19979;-54
2023/10/29 12:10:45;;;;;;;;;;;18.10;88.50;;;;;;4148296;28;19936;-55
2023/10/29 12:13:26;;;;;;;;;;;18.00;87.50;;;;;;4137966;28;19933;-54
2023/10/29 12:16:08;;;;;;;;;;;18.00;87.00;;;;;;4149655;28;19975;-50
2023/10/29 12:18:50;;;;;;;;;;;17.90;87.20;;;;;;4138811;28;19932;-53
2023/10/29 12:21:31;;;;;;;;;;;17.90;87.60;;;;;;4144448;28;20381;-50
2023/10/29 12:24:14;;;;;;;;;;;17.80;87.80;;;;;;4148449;28;20028;-50
2023/10/29 12:26:54;;;;;;;;;;;17.80;88.10;;;;;;4154367;28;19935;-50
2023/10/29 12:29:35;;;;;;;;;;;17.70;88.00;;;;;;4154202;28;19936;-51
2023/10/29 12:32:16;;;;;;;;;;;17.70;88.10;;;;;;4152758;28;19955;-51
2023/10/29 12:34:58;;;;;;;;;;;17.70;88.30;;;;;;4138334;28;19937;-49
2023/10/29 12:37:38;;;;;;;;;;;17.60;87.60;;;;;;4128890;28;19932;-50
2023/10/29 12:40:20;;;;;;;;;;;17.60;88.10;;;;;;4133304;28;20401;-52
2023/10/29 12:43:01;;;;;;;;;;;17.60;88.20;;;;;;4117927;28;20037;-54
2023/10/29 12:45:42;;;;;;;;;;;17.50;88.70;;;;;;4145530;28;19932;-51
2023/10/29 12:48:24;;;;;;;;;;;17.50;89.00;;;;;;4150462;28;19983;-52
2023/10/29 12:51:06;;;;;;;;;;;17.50;89.30;;;;;;4149762;28;19979;-53
2023/10/29 12:53:47;;;;;;;;;;;17.50;89.50;;;;;;4149660;28;19978;-54
2023/10/29 12:56:29;;;;;;;;;;;17.40;88.60;;;;;;4150123;28;19936;-50
2023/10/29 12:59:10;;;;;;;;;;;17.40;88.20;;;;;;4142827;28;19932;-59
2023/10/29 13:01:52;;;;;;;;;;;17.40;88.00;;;;;;4150853;28;19936;-50
2023/10/29 13:04:34;;;;;;;;;;;17.40;88.60;;;;;;4148386;28;19958;-52
2023/10/29 13:07:17;;;;;;;;;;;17.30;88.70;;;;;;4148844;28;20293;-55
2023/10/29 13:10:03;;;;;;;;;;;17.30;88.40;;;;;;4132341;28;19937;-53
2023/10/29 13:12:45;;;;;;;;;;;17.30;88.30;;;;;;4148613;28;19936;-53
2023/10/29 13:15:26;;;;;;;;;;;17.30;88.20;;;;;;4144995;28;19948;-54
2023/10/29 13:18:07;;;;;;;;;;;17.20;89.20;;;;;;4150929;28;19940;-54
2023/10/29 13:20:49;;;;;;;;;;;17.20;88.60;;;;;;4132883;28;20492;-53
2023/10/29 13:23:29;;;;;;;;;;;17.20;88.50;;;;;;4117520;28;19941;-55
2023/10/29 13:26:11;;;;;;;;;;;17.20;88.10;;;;;;4119020;28;19941;-54
2023/10/29 13:28:53;;;;;;;;;;;17.20;88.40;;;;;;4135301;28;19990;-51
2023/10/29 13:31:34;;;;;;;;;;;17.20;88.00;;;;;;4146129;28;19932;-51
2023/10/29 13:34:15;;;;;;;;;;;17.10;88.00;;;;;;4141607;28;20064;-49
2023/10/29 13:36:56;;;;;;;;;;;17.20;88.00;;;;;;4139555;28;19932;-54
2023/10/29 13:39:37;;;;;;;;;;;17.10;87.90;;;;;;4141793;28;19961;-50
2023/10/29 13:42:18;;;;;;;;;;;17.10;88.10;;;;;;4153226;28;20063;-53
2023/10/29 13:45:01;;;;;;;;;;;17.10;87.50;;;;;;4153792;28;19932;-53
2023/10/29 13:47:42;;;;;;;;;;;17.10;87.70;;;;;;4154820;28;19936;-54
2023/10/29 13:50:23;;;;;;;;;;;17.00;87.60;;;;;;4154773;28;20067;-52
2023/10/29 13:53:04;;;;;;;;;;;17.00;87.70;;;;;;4154607;28;19952;-55
2023/10/29 13:55:45;;;;;;;;;;;17.00;87.70;;;;;;4154278;28;20035;-51
2023/10/29 13:58:25;;;;;;;;;;;17.00;87.60;;;;;;4156058;28;19936;-50
2023/10/29 14:01:17;;;;;;;;;;;17.10;87.50;;;;;;4156269;28;20396;-53
2023/10/29 14:03:58;;;;;;;;;;;17.10;87.50;;;;;;4154720;28;19940;-54
2023/10/29 14:06:39;;;;;;;;;;;17.10;86.80;;;;;;4155233;28;20705;-54
2023/10/29 14:09:21;;;;;;;;;;;17.10;87.40;;;;;;4166234;28;20385;-52
2023/10/29 14:12:02;;;;;;;;;;;17.20;87.80;;;;;;4154920;28;19932;-53
2023/10/29 14:14:43;;;;;;;;;;;17.20;87.90;;;;;;4155309;28;19932;-52
2023/10/29 14:17:25;;;;;;;;;;;17.30;87.60;;;;;;4123773;28;19984;-51
2023/10/29 14:20:07;;;;;;;;;;;17.30;87.50;;;;;;4139056;28;20290;-55
2023/10/29 14:22:48;;;;;;;;;;;17.30;87.80;;;;;;4139543;28;19933;-49
2023/10/29 14:25:28;;;;;;;;;;;17.30;87.80;;;;;;4139858;28;19953;-51
2023/10/29 14:28:09;;;;;;;;;;;17.30;88.80;;;;;;4142737;28;19947;-52
2023/10/29 14:30:50;;;;;;;;;;;17.20;87.90;;;;;;4148049;28;20618;-54
2023/10/29 14:33:33;;;;;;;;;;;17.20;88.00;;;;;;4150222;28;19936;-55
2023/10/29 14:36:14;;;;;;;;;;;17.20;87.90;;;;;;4154256;28;20006;-55
2023/10/29 14:38:55;;;;;;;;;;;17.20;88.20;;;;;;4141721;28;20385;-55
2023/10/29 14:41:36;;;;;;;;;;;17.20;88.40;;;;;;4152104;28;20405;-54
2023/10/29 14:44:17;;;;;;;;;;;17.10;88.50;;;;;;4150450;28;19976;-57
2023/10/29 14:46:58;;;;;;;;;;;17.10;88.30;;;;;;4147011;28;19976;-54
2023/10/29 14:49:40;;;;;;;;;;;17.10;88.00;;;;;;4148315;28;19952;-57
2023/10/29 14:52:21;;;;;;;;;;;17.10;88.60;;;;;;4153418;28;19936;-56
2023/10/29 14:55:04;;;;;;;;;;;17.10;88.50;;;;;;4153183;28;19975;-57
2023/10/29 14:57:45;;;;;;;;;;;17.00;88.70;;;;;;4154257;28;19952;-57
2023/10/29 15:00:26;;;;;;;;;;;17.00;89.60;;;;;;4155855;28;20297;-54
2023/10/29 15:03:07;;;;;;;;;;;17.00;88.80;;;;;;4154770;28;19936;-55
2023/10/29 15:05:50;;;;;;;;;;;17.00;88.80;;;;;;4154536;28;19998;-56
2023/10/29 15:08:30;;;;;;;;;;;17.00;89.10;;;;;;4153974;28;20416;-57
2023/10/29 15:11:12;;;;;;;;;;;17.00;89.20;;;;;;4152083;28;19940;-57
2023/10/29 15:13:56;;;;;;;;;;;17.00;89.10;;;;;;4149328;28;20369;-57
2023/10/29 15:16:37;;;;;;;;;;;17.00;89.30;;;;;;4152853;28;20435;-51
2023/10/29 15:19:18;;;;;;;;;;;17.00;89.20;;;;;;4153798;28;19936;-54
2023/10/29 15:22:14;;;;;;;;;;;17.00;88.90;;;;;;4154272;28;19982;-54
2023/10/29 15:24:55;;;;;;;;;;;17.00;89.00;;;;;;4154911;28;19936;-55
2023/10/29 15:27:36;;;;;;;;;;;17.00;89.10;;;;;;4154209;28;20290;-49
2023/10/29 15:30:17;;;;;;;;;;;17.00;89.00;;;;;;4154099;28;19940;-54
2023/10/29 15:33:00;;;;;;;;;;;17.00;89.00;;;;;;4146817;28;20476;-50
2023/10/29 15:35:40;;;;;;;;;;;17.00;89.10;;;;;;4138769;28;19933;-51
2023/10/29 15:38:23;;;;;;;;;;;17.00;89.10;;;;;;4135925;28;20310;-53
2023/10/29 15:41:04;;;;;;;;;;;17.10;89.30;;;;;;4137159;28;20072;-50